Andrews, North Carolina
Current Conditions -  °F | °C
As of 6:55 PM on Monday 20 Oct 2014 (Local Time) from KRHP Reporting Station
Overcast Overcast  
Wind Chill: 57°   Ceiling: 9000
Heat Index: 57°   Visibility: 10mi
Dew Point: 55°   Wind: 3mph
Humidity: 91%   Direction: 320°NW
Pressure: 30.01"   Gusts: NA
Location:  35.2°N, 83.82°W
Report Text: KRHP 202255Z AUTO 32003KT 10SM SCT045 OVC090 14/13 A3001 RMK AO2 T01410126
Loading
Personal Weather Stations






























Interactive Weather Map
Tropical Storm Tracking
New forecast layout! Learn more

10-Day Weather Forecast

Advertisements
Track Severe Weather on mobile